createdAt,value
2023-03-15T00:01:25.487Z,4.9
2023-03-15T00:07:34.312Z,4.3
2023-03-15T00:13:35.222Z,3.8
2023-03-15T00:19:32.194Z,4
2023-03-15T00:25:38.710Z,4.9
2023-03-15T00:31:38.351Z,4.3
2023-03-15T00:37:28.474Z,5
2023-03-15T00:43:44.240Z,4.6
2023-03-15T00:49:41.847Z,4.8
2023-03-15T00:55:34.828Z,4.5
2023-03-15T01:01:26.189Z,5.5
2023-03-15T01:07:17.630Z,6.3
2023-03-15T01:13:14.383Z,6.9
2023-03-15T01:19:33.076Z,7.6
2023-03-15T01:25:29.248Z,8.7
2023-03-15T01:31:24.587Z,8.7
2023-03-15T01:37:29.220Z,9.3
2023-03-15T01:43:22.684Z,9.7
2023-03-15T01:49:40.229Z,10.2
2023-03-15T01:55:42.504Z,10.1
2023-03-15T02:01:45.105Z,10.4
2023-03-15T02:14:10.268Z,10.1
2023-03-15T02:20:15.311Z,9.9
2023-03-15T02:26:08.174Z,10.1
2023-03-15T02:32:10.353Z,10.4
2023-03-15T02:38:01.591Z,10
2023-03-15T02:43:58.254Z,10
2023-03-15T02:49:57.790Z,10.7
2023-03-15T02:56:02.646Z,11.1
2023-03-15T03:01:54.439Z,11.3
2023-03-15T03:07:49.954Z,11.7
2023-03-15T03:20:00.213Z,12.3
2023-03-15T03:25:49.977Z,13.4
2023-03-15T03:31:41.500Z,13.1
2023-03-15T03:37:31.249Z,13.4
2023-03-15T03:43:34.896Z,12.7
2023-03-15T03:49:24.762Z,12.4
2023-03-15T03:55:27.898Z,12.8
2023-03-15T04:01:18.217Z,12.8
2023-03-15T04:07:32.966Z,13.9
2023-03-15T04:13:24.288Z,13.8
2023-03-15T04:19:13.991Z,13.3
2023-03-15T04:25:05.382Z,12.6
2023-03-15T04:30:57.337Z,12.9
2023-03-15T04:36:49.584Z,13.9
2023-03-15T04:42:46.065Z,14.6
2023-03-15T04:48:36.864Z,13.8
2023-03-15T04:54:32.213Z,14.3
2023-03-15T05:00:42.475Z,14.1
2023-03-15T05:06:32.721Z,14.1
2023-03-15T05:12:24.595Z,15.2
2023-03-15T05:18:15.381Z,15.8
2023-03-15T05:24:06.787Z,15
2023-03-15T05:30:00.852Z,7.6
2023-03-15T05:35:51.937Z,2.9
2023-03-15T05:41:56.844Z,1.6
2023-03-15T05:47:48.336Z,1.7
2023-03-15T05:53:38.497Z,16.1
2023-03-15T05:59:31.467Z,1.3
2023-03-15T06:05:34.040Z,1.2
2023-03-15T06:11:24.545Z,1.3
2023-03-15T06:17:17.004Z,1.4
2023-03-15T06:23:11.619Z,1.7
2023-03-15T06:29:07.691Z,2.3
2023-03-15T06:35:00.465Z,2.4
2023-03-15T06:41:08.854Z,2.6
2023-03-15T06:46:59.333Z,2.9
2023-03-15T06:52:48.905Z,4.4
2023-03-15T06:58:36.956Z,4.1
2023-03-15T07:04:28.835Z,4.5
2023-03-15T07:10:21.230Z,4.9
2023-03-15T07:16:11.954Z,6.8
2023-03-15T07:22:03.459Z,7.9
2023-03-15T07:27:55.398Z,7.4
2023-03-15T07:33:48.005Z,8
2023-03-15T07:39:42.619Z,9.5
2023-03-15T07:45:59.864Z,11
2023-03-15T07:51:48.991Z,14.3
2023-03-15T07:57:44.508Z,15.5
2023-03-15T08:09:45.394Z,16.3
2023-03-15T08:15:34.979Z,17.2
2023-03-15T08:21:27.278Z,18.7
2023-03-15T08:27:17.897Z,18.3
2023-03-15T08:33:11.014Z,20
2023-03-15T08:39:08.758Z,19.5
2023-03-15T08:45:12.861Z,26.4
2023-03-15T08:51:10.427Z,26
2023-03-15T08:57:00.738Z,20.6
2023-03-15T09:02:58.040Z,20.9
2023-03-15T09:08:50.273Z,17.4
2023-03-15T09:14:42.807Z,15.9
2023-03-15T09:20:50.424Z,16.4
2023-03-15T09:26:40.806Z,14.2
2023-03-15T09:32:36.871Z,14
2023-03-15T09:38:32.136Z,14.9
2023-03-15T09:44:22.730Z,20.4
2023-03-15T09:50:18.167Z,27.4
2023-03-15T09:56:13.936Z,27.3
2023-03-15T10:02:14.518Z,26.2
2023-03-15T10:08:22.217Z,27.9
2023-03-15T10:14:29.493Z,27.3
2023-03-15T10:20:22.640Z,26.9
2023-03-15T10:26:28.626Z,23.4
2023-03-15T10:32:19.487Z,22.4
2023-03-15T10:38:13.744Z,23.4
2023-03-15T10:44:07.373Z,19.2
2023-03-15T10:50:29.922Z,17.7
2023-03-15T11:02:47.280Z,19.5
2023-03-15T11:21:37.083Z,12.1
2023-03-15T11:27:27.165Z,13.1
2023-03-15T11:33:28.646Z,8.8
2023-03-15T11:39:21.856Z,10.2
2023-03-15T11:45:42.192Z,8.6
2023-03-15T11:51:38.852Z,8.3
2023-03-15T11:57:38.775Z,7.1
2023-03-15T12:03:36.306Z,6.6
2023-03-15T12:09:31.212Z,6
2023-03-15T12:15:24.181Z,6.6
2023-03-15T12:21:16.165Z,5.4
2023-03-15T12:27:20.294Z,5.1
2023-03-15T12:33:11.787Z,4.9
2023-03-15T12:39:03.817Z,6.3
2023-03-15T12:44:58.377Z,6.7
2023-03-15T12:50:48.137Z,5
2023-03-15T12:57:07.264Z,3.1
2023-03-15T13:03:14.129Z,3.8
2023-03-15T13:15:10.283Z,4.3
2023-03-15T13:21:20.090Z,4.6
2023-03-15T13:27:13.149Z,4.6
2023-03-15T13:33:32.695Z,4.4
2023-03-15T13:39:23.039Z,4.6
2023-03-15T13:45:22.840Z,4.3
2023-03-15T13:51:23.611Z,4
2023-03-15T13:57:24.560Z,3.5
2023-03-15T14:03:15.483Z,3.2
2023-03-15T14:09:12.655Z,3.7
2023-03-15T14:21:31.019Z,3.2
2023-03-15T14:29:07.554Z,2.7
2023-03-15T14:35:12.075Z,2.5
2023-03-15T14:41:02.020Z,2.3
2023-03-15T14:46:58.178Z,2.4
2023-03-15T14:52:52.692Z,2.4
2023-03-15T14:58:45.816Z,2.1
2023-03-15T15:04:41.018Z,2.1
2023-03-15T15:10:40.639Z,1.9
2023-03-15T15:16:37.428Z,1.9
2023-03-15T15:22:30.214Z,2
2023-03-15T15:34:19.918Z,2
2023-03-15T15:40:14.516Z,1.7
2023-03-15T15:46:08.707Z,1.8
2023-03-15T15:52:00.074Z,1.6
2023-03-15T15:58:00.430Z,1.9
2023-03-15T16:03:53.681Z,2.5
2023-03-15T16:09:57.498Z,1.6
2023-03-15T16:16:01.039Z,1.6
2023-03-15T16:21:51.786Z,1.6
2023-03-15T16:27:49.645Z,1.7
2023-03-15T16:33:42.114Z,1.8
2023-03-15T16:39:38.659Z,2
2023-03-15T16:45:36.054Z,1.7
2023-03-15T16:57:46.824Z,2
2023-03-15T17:09:58.949Z,3.7
2023-03-15T17:15:56.710Z,2.5
2023-03-15T17:21:59.381Z,2.5
2023-03-15T17:28:05.506Z,10.4
2023-03-15T17:34:03.712Z,15.9
2023-03-15T17:40:13.201Z,5.8
2023-03-15T17:46:03.825Z,5.5
2023-03-15T17:51:58.666Z,6.7
2023-03-15T17:58:01.026Z,6.4
2023-03-15T18:04:18.876Z,4.8
2023-03-15T18:10:13.775Z,6
2023-03-15T18:16:18.991Z,4.7
2023-03-15T18:22:10.849Z,5.9
2023-03-15T18:28:03.609Z,4.8
2023-03-15T18:34:01.404Z,6
2023-03-15T18:39:50.349Z,3.4
2023-03-15T18:45:44.580Z,3.8
2023-03-15T18:51:39.150Z,5.8
2023-03-15T18:57:47.548Z,5.9
2023-03-15T19:03:39.826Z,8.4
2023-03-15T19:09:32.854Z,7.6
2023-03-15T19:15:26.730Z,9.1
2023-03-15T19:21:16.909Z,8.5
2023-03-15T19:27:07.830Z,6.8
2023-03-15T19:33:01.997Z,9
2023-03-15T19:38:54.884Z,9.6
2023-03-15T19:44:44.476Z,11.7
2023-03-15T19:50:38.200Z,10
2023-03-15T19:56:29.284Z,9.8
2023-03-15T20:02:24.676Z,6.6
2023-03-15T20:08:16.805Z,8.2
2023-03-15T20:14:08.177Z,6.9
2023-03-15T20:20:00.786Z,8.5
2023-03-15T20:26:00.683Z,10.9
2023-03-15T20:31:51.501Z,12.3
2023-03-15T20:37:43.146Z,9.8
2023-03-15T20:43:36.910Z,13.7
2023-03-15T20:49:31.040Z,15.9
2023-03-15T20:55:20.776Z,12.3
2023-03-15T21:01:14.965Z,12.8
2023-03-15T21:07:06.112Z,12.8
2023-03-15T21:13:02.983Z,16.7
2023-03-15T21:18:53.520Z,14.4
2023-03-15T21:25:01.267Z,13
2023-03-15T21:30:52.192Z,10
2023-03-15T21:36:42.736Z,7.3
2023-03-15T21:42:32.875Z,4.9
2023-03-15T21:48:23.788Z,4.6
2023-03-15T21:54:12.627Z,4.7
2023-03-15T22:00:03.385Z,5.2
2023-03-15T22:05:54.173Z,5.4
2023-03-15T22:11:46.537Z,6.4
2023-03-15T22:17:40.075Z,6.5
2023-03-15T22:23:35.375Z,7
2023-03-15T22:29:37.370Z,8.2
2023-03-15T22:35:28.288Z,9.3
2023-03-15T22:41:21.484Z,10
2023-03-15T22:47:25.792Z,9.6
2023-03-15T22:53:22.146Z,9.6
2023-03-15T22:59:27.223Z,8.7
2023-03-15T23:05:42.425Z,8.9
2023-03-15T23:11:36.137Z,8.8
2023-03-15T23:17:33.695Z,8.4
2023-03-15T23:23:31.284Z,7.3
2023-03-15T23:29:43.878Z,7.2
2023-03-15T23:35:49.026Z,7.1
2023-03-15T23:42:01.506Z,7.5
2023-03-15T23:48:03.548Z,8.4
2023-03-15T23:54:09.972Z,8
